Time;durP1;ratioP1;P1;durP2;ratioP2;P2;SDS_P1;SDS_P2;PMS_P1;PMS_P2;Temp;Humidity;BMP_temperature;BMP_pressure;BME280_temperature;BME280_humidity;BME280_pressure;Samples;Min_cycle;Max_cycle;Signal;HPM_P1;HPM_P2
2022/01/19 00:01:49;;;;;;;;;;;7.20;59.00;;;;;;5073186;28;19908;-69
2022/01/19 00:04:14;;;;;;;;;;;7.30;58.80;;;;;;5072962;28;20405;-64
2022/01/19 00:06:40;;;;;;;;;;;7.30;58.70;;;;;;5073152;28;19974;-64
2022/01/19 00:09:05;;;;;;;;;;;7.20;59.10;;;;;;5073255;28;19908;-65
2022/01/19 00:11:31;;;;;;;;;;;7.10;59.20;;;;;;5073038;28;20093;-66
2022/01/19 00:13:57;;;;;;;;;;;7.00;59.40;;;;;;5071752;28;20420;-71
2022/01/19 00:16:22;;;;;;;;;;;6.90;59.70;;;;;;5071648;28;19912;-56
2022/01/19 00:18:48;;;;;;;;;;;6.80;60.00;;;;;;5071460;28;19959;-56
2022/01/19 00:21:13;;;;;;;;;;;6.80;60.00;;;;;;5073120;28;19908;-66
2022/01/19 00:23:39;;;;;;;;;;;6.80;59.80;;;;;;5072880;28;19908;-57
2022/01/19 00:26:05;;;;;;;;;;;6.80;60.00;;;;;;5073260;28;19909;-71
2022/01/19 00:28:30;;;;;;;;;;;6.70;60.10;;;;;;5072764;28;19959;-58
2022/01/19 00:30:56;;;;;;;;;;;6.80;59.90;;;;;;5071831;28;19908;-60
2022/01/19 00:33:21;;;;;;;;;;;6.70;59.50;;;;;;5072897;28;19915;-71
2022/01/19 00:35:48;;;;;;;;;;;6.80;59.00;;;;;;5072987;28;19912;-61
2022/01/19 00:38:13;;;;;;;;;;;6.70;59.20;;;;;;5072778;28;20015;-70
2022/01/19 00:40:39;;;;;;;;;;;6.90;59.00;;;;;;5071573;28;19999;-70
2022/01/19 00:43:05;;;;;;;;;;;6.80;58.90;;;;;;5072867;28;20354;-59
2022/01/19 00:45:31;;;;;;;;;;;6.80;58.90;;;;;;5071445;28;19908;-59
2022/01/19 00:47:57;;;;;;;;;;;6.80;58.90;;;;;;5072593;28;19966;-59
2022/01/19 00:50:25;;;;;;;;;;;6.80;58.90;;;;;;5072818;28;19912;-56
2022/01/19 00:52:51;;;;;;;;;;;6.80;59.00;;;;;;5072895;28;19908;-55
2022/01/19 00:55:18;;;;;;;;;;;6.70;58.60;;;;;;5072459;28;20410;-55
2022/01/19 00:57:43;;;;;;;;;;;6.70;58.90;;;;;;5072638;28;19927;-57
2022/01/19 01:00:10;;;;;;;;;;;6.80;58.80;;;;;;5072563;28;19908;-57
2022/01/19 01:02:36;;;;;;;;;;;6.80;58.50;;;;;;5072810;28;19956;-57
2022/01/19 01:05:02;;;;;;;;;;;6.80;58.20;;;;;;5076147;28;19986;-56
2022/01/19 01:07:28;;;;;;;;;;;6.70;58.10;;;;;;5075940;28;19915;-57
2022/01/19 01:09:54;;;;;;;;;;;6.70;58.00;;;;;;5076027;28;19908;-63
2022/01/19 01:12:31;;;;;;;;;;;6.80;58.20;;;;;;5075985;28;19909;-58
2022/01/19 01:20:24;;;;;;;;;;;6.70;58.10;;;;;;5076004;28;19927;-58
2022/01/19 01:22:50;;;;;;;;;;;6.80;58.40;;;;;;5075858;28;19908;-55
2022/01/19 01:25:16;;;;;;;;;;;6.90;58.10;;;;;;5075682;28;19916;-56
2022/01/19 01:27:41;;;;;;;;;;;6.90;58.10;;;;;;5075649;28;19912;-56
2022/01/19 01:30:07;;;;;;;;;;;6.90;57.70;;;;;;5075751;28;19995;-57
2022/01/19 01:32:33;;;;;;;;;;;7.00;57.40;;;;;;5075640;28;19912;-56
2022/01/19 01:34:58;;;;;;;;;;;7.10;56.90;;;;;;5075379;28;19919;-57
2022/01/19 01:37:24;;;;;;;;;;;7.30;56.20;;;;;;5075530;28;19924;-55
2022/01/19 01:39:50;;;;;;;;;;;7.20;56.40;;;;;;5075033;28;19909;-58
2022/01/19 01:42:17;;;;;;;;;;;7.00;56.90;;;;;;5075633;28;20023;-57
2022/01/19 01:44:46;;;;;;;;;;;7.10;57.10;;;;;;5075426;28;19908;-55
2022/01/19 01:47:13;;;;;;;;;;;7.00;57.00;;;;;;5075246;28;19948;-65
2022/01/19 01:53:16;;;;;;;;;;;7.00;56.90;;;;;;5075227;28;19916;-56
2022/01/19 01:55:21;;;;;;;;;;;7.20;56.60;;;;;;5075331;28;19915;-57
2022/01/19 01:57:47;;;;;;;;;;;7.00;57.10;;;;;;5075410;28;20011;-74
2022/01/19 02:00:15;;;;;;;;;;;6.90;57.50;;;;;;5075359;28;19944;-74
2022/01/19 02:02:41;;;;;;;;;;;6.90;57.80;;;;;;5075475;28;19962;-74
2022/01/19 02:05:09;;;;;;;;;;;6.90;57.60;;;;;;5074944;28;20272;-74
2022/01/19 02:10:29;;;;;;;;;;;7.00;57.60;;;;;;5075175;28;19915;-73
2022/01/19 02:23:54;;;;;;;;;;;7.50;55.50;;;;;;5074443;28;19919;-75
2022/01/19 02:26:33;;;;;;;;;;;7.80;54.30;;;;;;5073626;28;20011;-56
2022/01/19 02:29:17;;;;;;;;;;;7.90;53.60;;;;;;5074555;28;20337;-56
2022/01/19 02:50:38;;;;;;;;;;;8.10;53.30;;;;;;5071892;28;19916;-56
2022/01/19 02:53:04;;;;;;;;;;;7.90;53.80;;;;;;5071726;28;19909;-58
2022/01/19 02:55:31;;;;;;;;;;;7.70;54.20;;;;;;5071992;28;19916;-57
2022/01/19 02:57:57;;;;;;;;;;;7.60;54.70;;;;;;5071783;28;19923;-56
2022/01/19 03:08:48;;;;;;;;;;;8.10;53.10;;;;;;5072334;28;19947;-56
2022/01/19 03:11:15;;;;;;;;;;;7.90;53.60;;;;;;5072129;28;20408;-55
2022/01/19 03:13:41;;;;;;;;;;;7.80;54.40;;;;;;5072876;28;19913;-56
2022/01/19 03:16:06;;;;;;;;;;;7.60;55.10;;;;;;5073764;28;19912;-55
2022/01/19 03:18:32;;;;;;;;;;;7.40;55.70;;;;;;5073457;28;19944;-56
2022/01/19 03:20:57;;;;;;;;;;;7.40;55.90;;;;;;5073739;28;20007;-57
2022/01/19 03:23:23;;;;;;;;;;;7.30;55.90;;;;;;5072339;28;19916;-55
2022/01/19 03:25:49;;;;;;;;;;;7.30;56.30;;;;;;5072807;28;20314;-57
2022/01/19 03:28:15;;;;;;;;;;;7.30;56.30;;;;;;5073343;28;19908;-55
2022/01/19 03:30:41;;;;;;;;;;;7.20;56.40;;;;;;5073438;28;19908;-57
2022/01/19 03:33:07;;;;;;;;;;;7.20;56.40;;;;;;5073754;28;19968;-57
2022/01/19 03:35:32;;;;;;;;;;;7.50;55.70;;;;;;5073637;28;19913;-55
2022/01/19 03:37:58;;;;;;;;;;;7.40;55.90;;;;;;5073197;28;20387;-56
2022/01/19 03:40:23;;;;;;;;;;;7.30;56.20;;;;;;5073425;28;20380;-56
2022/01/19 03:42:49;;;;;;;;;;;7.10;56.50;;;;;;5073240;28;19909;-60
2022/01/19 03:45:15;;;;;;;;;;;7.10;56.60;;;;;;5073365;28;20253;-57
2022/01/19 03:47:50;;;;;;;;;;;7.10;56.80;;;;;;5073367;28;19908;-56
2022/01/19 03:50:16;;;;;;;;;;;7.20;56.80;;;;;;5073378;28;19916;-61
2022/01/19 03:52:41;;;;;;;;;;;7.10;57.00;;;;;;5073317;28;20379;-56
2022/01/19 03:55:08;;;;;;;;;;;7.10;57.30;;;;;;5073047;28;19943;-56
2022/01/19 03:57:34;;;;;;;;;;;7.00;57.30;;;;;;5073615;28;19960;-57
2022/01/19 03:59:59;;;;;;;;;;;7.00;57.50;;;;;;5073458;28;20363;-57
2022/01/19 04:02:25;;;;;;;;;;;6.90;57.70;;;;;;5073056;28;20378;-57
2022/01/19 04:07:16;;;;;;;;;;;6.90;57.80;;;;;;5073158;28;19916;-56
2022/01/19 04:09:43;;;;;;;;;;;6.90;57.70;;;;;;5073221;28;19916;-59
2022/01/19 04:12:12;;;;;;;;;;;6.90;57.90;;;;;;5073029;28;20011;-55
2022/01/19 04:14:38;;;;;;;;;;;6.90;58.10;;;;;;5072932;28;19916;-55
2022/01/19 04:17:05;;;;;;;;;;;6.90;57.90;;;;;;5073068;28;19917;-55
2022/01/19 04:21:57;;;;;;;;;;;6.70;58.60;;;;;;5073011;28;19956;-56
2022/01/19 04:24:23;;;;;;;;;;;6.60;59.00;;;;;;5072952;28;19915;-56
2022/01/19 04:27:49;;;;;;;;;;;6.60;59.10;;;;;;5072777;28;20000;-55
2022/01/19 04:30:00;;;;;;;;;;;6.60;59.20;;;;;;5072246;28;20007;-58
2022/01/19 04:32:33;;;;;;;;;;;6.60;59.30;;;;;;5073646;28;19909;-56
2022/01/19 04:35:14;;;;;;;;;;;6.60;59.60;;;;;;5072938;28;19931;-55
2022/01/19 05:05:05;;;;;;;;;;;6.40;60.60;;;;;;5222854;22;20315;-62
2022/01/19 05:07:38;;;;;;;;;;;6.40;60.70;;;;;;4980067;28;19949;-62
2022/01/19 05:15:43;;;;;;;;;;;6.30;61.10;;;;;;4957813;29;19993;-62
2022/01/19 05:18:09;;;;;;;;;;;6.40;60.80;;;;;;4957796;29;19986;-61
2022/01/19 05:20:34;;;;;;;;;;;6.40;60.90;;;;;;4957949;28;20298;-62
2022/01/19 05:23:00;;;;;;;;;;;6.40;60.60;;;;;;4957473;28;19914;-62
2022/01/19 05:25:26;;;;;;;;;;;6.30;60.90;;;;;;4957908;28;19911;-61
2022/01/19 05:27:52;;;;;;;;;;;6.10;61.80;;;;;;4957568;29;19979;-62
2022/01/19 05:30:18;;;;;;;;;;;6.10;62.30;;;;;;4956612;28;19963;-63
2022/01/19 05:32:47;;;;;;;;;;;6.00;62.60;;;;;;4957649;28;19915;-62
2022/01/19 05:35:13;;;;;;;;;;;6.20;68.40;;;;;;4957609;28;19914;-62
2022/01/19 05:37:38;;;;;;;;;;;6.50;63.60;;;;;;4957326;28;20259;-63
2022/01/19 05:40:05;;;;;;;;;;;6.80;61.60;;;;;;4957239;29;20310;-62
2022/01/19 05:42:30;;;;;;;;;;;6.90;60.10;;;;;;4957415;28;19986;-63
2022/01/19 05:44:56;;;;;;;;;;;7.00;59.70;;;;;;4957425;29;20001;-63
2022/01/19 05:47:21;;;;;;;;;;;6.90;60.00;;;;;;4957135;29;19911;-60
2022/01/19 05:49:47;;;;;;;;;;;6.90;60.10;;;;;;4971364;28;19922;-60
2022/01/19 05:52:13;;;;;;;;;;;6.70;60.60;;;;;;4957123;28;19917;-62
2022/01/19 05:54:39;;;;;;;;;;;6.70;60.70;;;;;;4957392;28;19910;-63
2022/01/19 05:57:05;;;;;;;;;;;6.40;61.20;;;;;;4956854;28;20377;-64
2022/01/19 05:59:30;;;;;;;;;;;6.30;62.00;;;;;;4964838;28;19922;-66
2022/01/19 06:01:56;;;;;;;;;;;6.20;62.50;;;;;;4975679;28;20362;-66
2022/01/19 06:04:22;;;;;;;;;;;6.00;63.20;;;;;;4975572;28;19911;-65
2022/01/19 06:06:49;;;;;;;;;;;5.90;63.80;;;;;;4975568;28;19920;-66
2022/01/19 06:12:04;;;;;;;;;;;5.90;63.90;;;;;;4975520;28;19933;-69
2022/01/19 06:14:31;;;;;;;;;;;5.80;64.00;;;;;;4975469;28;19932;-62
2022/01/19 06:16:57;;;;;;;;;;;5.80;64.60;;;;;;4975215;28;20354;-67
2022/01/19 06:19:22;;;;;;;;;;;5.60;65.10;;;;;;4975479;28;19917;-67
2022/01/19 06:21:48;;;;;;;;;;;5.60;65.20;;;;;;4975170;28;19914;-64
2022/01/19 06:24:14;;;;;;;;;;;5.60;65.00;;;;;;4975406;28;19910;-66
2022/01/19 06:26:39;;;;;;;;;;;5.60;65.00;;;;;;4975205;28;19914;-64
2022/01/19 06:29:05;;;;;;;;;;;5.70;65.20;;;;;;4975178;28;19918;-60
2022/01/19 06:31:31;;;;;;;;;;;5.70;65.30;;;;;;4975663;28;20017;-62
2022/01/19 06:33:56;;;;;;;;;;;5.70;65.50;;;;;;4975742;28;19972;-62
2022/01/19 06:36:22;;;;;;;;;;;5.70;66.20;;;;;;4975280;28;19933;-65
2022/01/19 06:38:47;;;;;;;;;;;5.70;66.30;;;;;;4974817;28;19949;-64
2022/01/19 06:41:13;;;;;;;;;;;5.60;66.70;;;;;;4975191;28;19991;-66
2022/01/19 06:43:39;;;;;;;;;;;5.60;67.10;;;;;;4975227;28;19995;-64
2022/01/19 06:46:04;;;;;;;;;;;5.50;67.20;;;;;;4975149;28;19932;-63
2022/01/19 06:48:30;;;;;;;;;;;5.50;68.10;;;;;;4975378;28;19911;-63
2022/01/19 06:50:56;;;;;;;;;;;5.60;67.60;;;;;;4975632;28;19981;-63
2022/01/19 06:53:21;;;;;;;;;;;5.60;68.00;;;;;;4975598;28;20005;-62
2022/01/19 06:55:47;;;;;;;;;;;5.80;67.10;;;;;;4975059;28;19918;-63
2022/01/19 06:58:12;;;;;;;;;;;5.90;66.50;;;;;;4974353;28;19969;-66
2022/01/19 07:00:38;;;;;;;;;;;6.00;65.60;;;;;;4974076;28;19925;-63
2022/01/19 07:03:04;;;;;;;;;;;6.30;63.90;;;;;;4975362;28;19957;-60
2022/01/19 07:05:29;;;;;;;;;;;6.60;62.70;;;;;;4975140;28;19977;-60
2022/01/19 07:07:56;;;;;;;;;;;6.60;62.40;;;;;;4974874;28;19917;-62
2022/01/19 07:10:22;;;;;;;;;;;6.60;62.40;;;;;;4974498;28;19918;-65
2022/01/19 07:12:47;;;;;;;;;;;6.80;62.20;;;;;;4975218;28;19914;-64
2022/01/19 07:15:13;;;;;;;;;;;6.80;61.40;;;;;;4975412;28;19917;-64
2022/01/19 07:17:39;;;;;;;;;;;6.90;61.50;;;;;;4975112;28;20021;-65
2022/01/19 07:20:05;;;;;;;;;;;6.90;61.50;;;;;;4975199;28;19921;-61
2022/01/19 07:22:30;;;;;;;;;;;6.80;61.70;;;;;;4975113;28;19910;-62
2022/01/19 07:24:58;;;;;;;;;;;6.70;62.00;;;;;;4974875;28;19916;-62
2022/01/19 07:27:24;;;;;;;;;;;6.70;62.70;;;;;;4975242;28;19921;-62
2022/01/19 07:29:49;;;;;;;;;;;6.70;64.00;;;;;;4974038;28;19914;-61
2022/01/19 07:32:15;;;;;;;;;;;6.70;64.80;;;;;;4974293;28;19910;-60
2022/01/19 07:34:41;;;;;;;;;;;6.70;63.40;;;;;;4974435;28;19910;-62
2022/01/19 07:37:06;;;;;;;;;;;6.70;63.10;;;;;;4974308;28;19910;-62
2022/01/19 07:39:32;;;;;;;;;;;6.70;63.20;;;;;;4974273;28;19910;-61
2022/01/19 07:41:57;;;;;;;;;;;6.80;62.40;;;;;;4974377;28;19921;-62
2022/01/19 07:44:23;;;;;;;;;;;6.90;61.70;;;;;;4974299;28;20364;-61
2022/01/19 07:46:51;;;;;;;;;;;7.00;61.70;;;;;;4974634;28;19914;-61
2022/01/19 07:49:17;;;;;;;;;;;7.00;61.50;;;;;;4974614;28;19910;-62
2022/01/19 07:51:42;;;;;;;;;;;7.10;61.30;;;;;;4974967;28;19953;-63
2022/01/19 07:54:08;;;;;;;;;;;7.10;61.70;;;;;;4974558;28;20483;-65
2022/01/19 07:56:34;;;;;;;;;;;7.00;61.90;;;;;;4974214;28;19917;-61
2022/01/19 07:58:59;;;;;;;;;;;6.90;62.70;;;;;;4974153;28;19918;-61
2022/01/19 08:01:27;;;;;;;;;;;6.90;62.30;;;;;;4974077;28;19917;-62
2022/01/19 08:03:53;;;;;;;;;;;7.10;62.30;;;;;;4974206;28;19968;-63
2022/01/19 08:06:19;;;;;;;;;;;7.10;62.50;;;;;;4974094;28;19966;-62
2022/01/19 08:08:44;;;;;;;;;;;7.20;62.40;;;;;;4973437;28;20354;-63
2022/01/19 08:11:10;;;;;;;;;;;7.20;61.90;;;;;;4975226;28;19917;-63
2022/01/19 08:13:35;;;;;;;;;;;7.40;61.60;;;;;;4977752;28;19918;-63
2022/01/19 08:16:01;;;;;;;;;;;7.50;61.20;;;;;;4977615;28;19946;-62
2022/01/19 08:18:26;;;;;;;;;;;7.40;61.30;;;;;;4977845;28;19918;-61
2022/01/19 08:20:52;;;;;;;;;;;7.50;61.30;;;;;;4977810;28;20321;-63
2022/01/19 08:23:17;;;;;;;;;;;7.60;61.60;;;;;;4977991;28;19950;-64
2022/01/19 08:25:43;;;;;;;;;;;7.50;61.60;;;;;;4978524;28;19917;-64
2022/01/19 08:28:08;;;;;;;;;;;7.50;62.40;;;;;;4978301;28;19949;-63
2022/01/19 08:30:34;;;;;;;;;;;7.50;62.50;;;;;;4978321;28;20001;-62
2022/01/19 08:33:00;;;;;;;;;;;7.60;61.90;;;;;;4978431;28;19921;-63
2022/01/19 08:35:25;;;;;;;;;;;7.70;61.80;;;;;;4978909;28;19950;-65
2022/01/19 08:37:51;;;;;;;;;;;7.80;61.30;;;;;;4978376;28;20404;-62
2022/01/19 08:40:16;;;;;;;;;;;8.00;60.60;;;;;;4978445;28;19917;-63
2022/01/19 08:42:42;;;;;;;;;;;8.00;60.90;;;;;;4978179;28;19917;-61
2022/01/19 08:45:08;;;;;;;;;;;8.00;61.80;;;;;;4978276;28;19918;-61
2022/01/19 08:47:35;;;;;;;;;;;8.10;62.40;;;;;;4977240;28;19922;-61
2022/01/19 08:50:01;;;;;;;;;;;8.20;62.60;;;;;;4977860;28;19917;-65
2022/01/19 08:52:26;;;;;;;;;;;8.20;62.20;;;;;;4977442;28;19910;-65
2022/01/19 08:54:52;;;;;;;;;;;8.50;63.10;;;;;;4977422;28;19910;-65
2022/01/19 08:57:18;;;;;;;;;;;8.60;62.20;;;;;;4977763;28;20469;-61
2022/01/19 08:59:44;;;;;;;;;;;8.70;61.20;;;;;;4978079;28;19910;-62
2022/01/19 09:02:09;;;;;;;;;;;8.80;60.80;;;;;;4977963;28;20392;-65
2022/01/19 09:04:35;;;;;;;;;;;9.00;60.60;;;;;;4986654;28;19922;-61
2022/01/19 09:07:01;;;;;;;;;;;9.20;61.10;;;;;;4992257;28;19917;-60
2022/01/19 09:09:26;;;;;;;;;;;9.50;61.80;;;;;;4991848;28;19974;-69
2022/01/19 09:11:52;;;;;;;;;;;9.50;58.80;;;;;;4989190;28;19914;-69
2022/01/19 09:14:17;;;;;;;;;;;9.10;58.90;;;;;;4991095;28;19942;-64
2022/01/19 09:16:45;;;;;;;;;;;9.10;59.10;;;;;;4981311;28;19937;-66
2022/01/19 09:19:12;;;;;;;;;;;9.10;59.00;;;;;;4984271;28;19925;-64
2022/01/19 09:21:38;;;;;;;;;;;9.00;58.50;;;;;;4981950;28;20012;-67
2022/01/19 09:24:04;;;;;;;;;;;9.00;59.50;;;;;;4976978;28;19950;-63
2022/01/19 09:26:29;;;;;;;;;;;8.90;60.30;;;;;;4977743;28;20400;-61
2022/01/19 09:28:55;;;;;;;;;;;9.00;60.90;;;;;;4977664;28;20008;-64
2022/01/19 09:31:21;;;;;;;;;;;9.00;61.60;;;;;;4977702;28;19910;-65
2022/01/19 09:33:54;;;;;;;;;;;9.00;61.40;;;;;;4977315;28;19910;-68
2022/01/19 09:38:55;;;;;;;;;;;9.10;60.70;;;;;;4977215;28;20348;-63
2022/01/19 09:41:20;;;;;;;;;;;9.30;61.20;;;;;;4976743;28;20000;-64
2022/01/19 09:43:46;;;;;;;;;;;9.50;59.60;;;;;;4976967;28;20453;-68
2022/01/19 09:46:12;;;;;;;;;;;9.50;59.10;;;;;;4976752;28;20292;-62
2022/01/19 09:48:37;;;;;;;;;;;9.70;58.70;;;;;;4976973;28;19962;-62
2022/01/19 09:51:03;;;;;;;;;;;9.90;59.10;;;;;;4976670;28;19911;-61
2022/01/19 09:53:28;;;;;;;;;;;9.80;57.60;;;;;;4976616;28;19914;-61
2022/01/19 09:55:54;;;;;;;;;;;9.80;57.40;;;;;;4976687;28;19910;-62
2022/01/19 09:58:22;;;;;;;;;;;9.80;57.60;;;;;;4976515;28;20333;-68
2022/01/19 10:00:48;;;;;;;;;;;9.90;58.30;;;;;;4976775;28;19921;-63
2022/01/19 10:03:15;;;;;;;;;;;10.00;58.80;;;;;;4976424;28;19964;-61
2022/01/19 10:05:57;;;;;;;;;;;10.20;57.80;;;;;;4976390;28;19922;-60
2022/01/19 10:08:27;;;;;;;;;;;10.20;56.90;;;;;;4976743;28;19910;-64
2022/01/19 10:11:10;;;;;;;;;;;10.20;57.40;;;;;;4976249;28;19914;-63
2022/01/19 10:19:11;;;;;;;;;;;10.30;58.10;;;;;;4976325;28;19941;-63
2022/01/19 10:21:54;;;;;;;;;;;10.30;56.70;;;;;;4976376;28;19910;-64
2022/01/19 10:24:31;;;;;;;;;;;10.30;57.30;;;;;;4976317;28;19936;-62
2022/01/19 10:27:16;;;;;;;;;;;10.30;56.90;;;;;;4974810;28;19914;-64
2022/01/19 10:29:41;;;;;;;;;;;10.30;56.70;;;;;;4976046;28;19917;-63
2022/01/19 10:32:07;;;;;;;;;;;10.20;57.80;;;;;;4974549;28;19911;-63
2022/01/19 10:34:34;;;;;;;;;;;10.20;58.30;;;;;;4974565;28;19917;-63
2022/01/19 10:37:02;;;;;;;;;;;10.30;58.20;;;;;;4974628;28;19918;-63
2022/01/19 10:39:42;;;;;;;;;;;10.50;58.50;;;;;;4975136;28;20398;-63
2022/01/19 10:42:12;;;;;;;;;;;10.80;57.90;;;;;;4975588;28;20342;-64
2022/01/19 10:44:39;;;;;;;;;;;11.00;57.20;;;;;;4976043;28;19917;-63
2022/01/19 10:47:05;;;;;;;;;;;11.20;54.30;;;;;;4975764;28;19911;-64
2022/01/19 10:49:47;;;;;;;;;;;11.20;52.60;;;;;;4975965;28;19965;-62
2022/01/19 10:52:31;;;;;;;;;;;11.20;52.70;;;;;;4976074;28;19945;-64
2022/01/19 10:55:01;;;;;;;;;;;11.40;53.50;;;;;;4975729;28;19914;-63
2022/01/19 10:57:28;;;;;;;;;;;11.10;51.70;;;;;;4975761;28;19920;-63
2022/01/19 11:00:09;;;;;;;;;;;10.70;52.80;;;;;;4974461;28;19942;-65
2022/01/19 11:02:37;;;;;;;;;;;10.60;52.80;;;;;;4975335;28;20255;-61
2022/01/19 11:05:03;;;;;;;;;;;10.60;52.50;;;;;;4975439;28;19926;-61
2022/01/19 11:07:29;;;;;;;;;;;10.50;51.70;;;;;;4975513;28;19925;-61
2022/01/19 11:10:01;;;;;;;;;;;10.60;52.60;;;;;;4975334;28;19941;-61
2022/01/19 11:12:30;;;;;;;;;;;10.70;53.30;;;;;;4975192;28;20378;-62
2022/01/19 11:14:56;;;;;;;;;;;10.80;53.40;;;;;;4975271;28;20329;-64
2022/01/19 11:17:22;;;;;;;;;;;10.90;53.40;;;;;;4975367;28;19914;-61
2022/01/19 11:19:49;;;;;;;;;;;10.80;53.80;;;;;;4975169;28;19946;-62
2022/01/19 11:22:34;;;;;;;;;;;10.90;53.70;;;;;;4974000;28;19965;-62
2022/01/19 11:25:23;;;;;;;;;;;11.00;53.20;;;;;;4973982;28;19914;-63
2022/01/19 11:27:49;;;;;;;;;;;11.10;53.70;;;;;;4967335;28;19918;-61
2022/01/19 11:30:18;;;;;;;;;;;11.20;54.40;;;;;;4975185;28;19914;-60
2022/01/19 11:32:44;;;;;;;;;;;11.40;54.60;;;;;;4975182;28;20302;-61
2022/01/19 11:35:29;;;;;;;;;;;11.40;55.00;;;;;;4974959;28;19920;-62
2022/01/19 11:37:55;;;;;;;;;;;11.40;55.60;;;;;;4974121;28;19918;-62
2022/01/19 11:40:22;;;;;;;;;;;11.30;56.10;;;;;;4974406;28;19972;-61
2022/01/19 11:42:47;;;;;;;;;;;11.50;55.40;;;;;;4974501;28;19957;-62
2022/01/19 11:45:32;;;;;;;;;;;11.20;54.80;;;;;;4974823;28;19918;-62
2022/01/19 11:48:11;;;;;;;;;;;11.40;55.40;;;;;;4973824;28;19910;-64
2022/01/19 11:50:37;;;;;;;;;;;11.10;55.70;;;;;;4974252;28;19925;-63
2022/01/19 11:53:08;;;;;;;;;;;11.20;56.10;;;;;;4974440;28;19910;-59
2022/01/19 11:55:34;;;;;;;;;;;11.30;54.70;;;;;;4972700;28;20373;-61
2022/01/19 11:58:16;;;;;;;;;;;11.20;55.30;;;;;;4973618;28;19933;-64
2022/01/19 12:00:43;;;;;;;;;;;11.10;55.40;;;;;;4973911;28;19964;-61
2022/01/19 12:03:17;;;;;;;;;;;11.30;55.00;;;;;;4974140;28;19914;-61
2022/01/19 12:05:43;;;;;;;;;;;11.50;55.10;;;;;;4974452;28;19922;-61
2022/01/19 12:08:22;;;;;;;;;;;11.60;54.80;;;;;;4974808;28;20428;-66
2022/01/19 12:10:49;;;;;;;;;;;11.70;53.80;;;;;;4974470;28;19920;-62
2022/01/19 12:13:31;;;;;;;;;;;11.70;53.80;;;;;;4959373;28;19911;-63
2022/01/19 12:16:03;;;;;;;;;;;11.50;54.90;;;;;;4957654;28;20013;-61
2022/01/19 12:18:41;;;;;;;;;;;11.20;56.00;;;;;;4982248;28;19921;-64
2022/01/19 12:21:11;;;;;;;;;;;11.00;57.10;;;;;;4974071;28;19914;-62
2022/01/19 12:23:37;;;;;;;;;;;11.10;58.20;;;;;;4974280;28;19917;-60
2022/01/19 12:26:03;;;;;;;;;;;11.10;57.80;;;;;;4979731;28;19917;-62
2022/01/19 12:28:41;;;;;;;;;;;10.90;58.30;;;;;;4992074;28;19961;-64
2022/01/19 12:31:24;;;;;;;;;;;10.90;58.70;;;;;;4994111;28;19910;-71
2022/01/19 12:34:02;;;;;;;;;;;10.80;61.20;;;;;;4994222;28;19914;-70
2022/01/19 12:36:43;;;;;;;;;;;11.10;61.20;;;;;;4994072;28;19917;-64
2022/01/19 12:39:28;;;;;;;;;;;11.10;59.10;;;;;;4994531;28;19918;-70
2022/01/19 12:42:04;;;;;;;;;;;11.20;59.30;;;;;;5005012;28;19910;-69
2022/01/19 12:44:35;;;;;;;;;;;11.30;59.50;;;;;;5005855;28;19913;-65
2022/01/19 12:47:04;;;;;;;;;;;11.40;59.50;;;;;;4965608;28;19910;-75
2022/01/19 12:49:37;;;;;;;;;;;11.50;58.30;;;;;;4961211;28;19910;-68
2022/01/19 12:52:13;;;;;;;;;;;11.50;57.30;;;;;;4968400;28;19917;-73
2022/01/19 12:54:38;;;;;;;;;;;11.50;58.00;;;;;;4986334;28;19911;-68
2022/01/19 12:57:06;;;;;;;;;;;11.50;57.10;;;;;;4972162;29;20002;-62
2022/01/19 12:59:33;;;;;;;;;;;11.50;57.30;;;;;;4979015;28;20418;-67
2022/01/19 13:01:59;;;;;;;;;;;11.20;58.70;;;;;;4963893;28;19997;-68
2022/01/19 13:04:26;;;;;;;;;;;11.30;58.80;;;;;;4962705;28;19917;-63
2022/01/19 13:06:55;;;;;;;;;;;11.30;57.50;;;;;;4965323;28;19922;-68
2022/01/19 13:09:28;;;;;;;;;;;11.40;57.60;;;;;;4964766;28;19948;-66
2022/01/19 13:11:55;;;;;;;;;;;11.40;57.20;;;;;;4959331;28;19966;-66
2022/01/19 13:14:23;;;;;;;;;;;11.50;57.60;;;;;;4959147;28;19914;-63
2022/01/19 13:16:52;;;;;;;;;;;11.60;58.10;;;;;;4958857;28;19953;-65
2022/01/19 13:19:18;;;;;;;;;;;11.80;57.60;;;;;;4958381;28;19937;-63
2022/01/19 13:21:46;;;;;;;;;;;11.80;57.20;;;;;;4957777;28;20009;-65
2022/01/19 13:24:20;;;;;;;;;;;11.90;56.80;;;;;;4973183;28;20351;-69
2022/01/19 13:26:51;;;;;;;;;;;11.90;57.40;;;;;;4979501;28;19917;-69
2022/01/19 13:29:23;;;;;;;;;;;11.90;57.60;;;;;;4976475;28;19961;-67
2022/01/19 13:31:56;;;;;;;;;;;11.80;57.40;;;;;;4976467;28;19914;-70
2022/01/19 13:34:22;;;;;;;;;;;11.70;58.40;;;;;;4978998;28;20000;-61
2022/01/19 13:36:55;;;;;;;;;;;11.60;59.30;;;;;;4976412;28;20407;-66
2022/01/19 13:39:22;;;;;;;;;;;11.70;60.00;;;;;;4978738;28;19929;-67
2022/01/19 13:41:50;;;;;;;;;;;11.60;59.90;;;;;;4976366;28;20424;-65
2022/01/19 13:44:20;;;;;;;;;;;11.40;59.70;;;;;;4978821;28;19914;-64
2022/01/19 13:46:46;;;;;;;;;;;11.40;60.50;;;;;;4975954;28;19914;-63
2022/01/19 13:49:11;;;;;;;;;;;11.40;61.40;;;;;;4978091;28;20314;-64
2022/01/19 13:51:41;;;;;;;;;;;11.50;60.70;;;;;;4976135;28;19910;-64
2022/01/19 13:54:06;;;;;;;;;;;11.50;60.10;;;;;;4976319;28;19914;-61
2022/01/19 13:56:35;;;;;;;;;;;11.50;60.20;;;;;;4976718;28;19910;-63
2022/01/19 13:59:04;;;;;;;;;;;11.40;61.00;;;;;;4976368;28;19925;-63
2022/01/19 14:01:35;;;;;;;;;;;11.30;60.80;;;;;;4976499;28;20296;-62
2022/01/19 14:04:06;;;;;;;;;;;11.30;61.50;;;;;;4976499;28;19918;-63
2022/01/19 14:06:33;;;;;;;;;;;11.30;61.90;;;;;;4976123;28;19926;-62
2022/01/19 14:09:23;;;;;;;;;;;11.20;62.40;;;;;;4991323;28;20021;-65
2022/01/19 14:11:56;;;;;;;;;;;11.30;61.90;;;;;;4971283;28;19914;-64
2022/01/19 14:14:35;;;;;;;;;;;11.30;62.10;;;;;;4976524;28;19941;-64
2022/01/19 14:17:01;;;;;;;;;;;11.30;62.40;;;;;;4975884;28;20405;-65
2022/01/19 14:19:28;;;;;;;;;;;11.00;62.20;;;;;;4976423;28;19918;-64
2022/01/19 14:21:59;;;;;;;;;;;11.00;63.10;;;;;;4975678;28;19914;-63
2022/01/19 14:24:26;;;;;;;;;;;10.90;63.40;;;;;;4978413;28;19918;-63
2022/01/19 14:26:52;;;;;;;;;;;10.90;63.70;;;;;;4975472;28;19910;-63
2022/01/19 14:29:18;;;;;;;;;;;10.80;63.70;;;;;;4975419;28;19949;-60
2022/01/19 14:31:51;;;;;;;;;;;10.70;63.70;;;;;;4975825;28;19941;-65
2022/01/19 14:34:31;;;;;;;;;;;10.60;64.30;;;;;;5006553;28;19976;-61
2022/01/19 14:37:14;;;;;;;;;;;10.50;64.80;;;;;;4975033;28;19952;-63
2022/01/19 14:39:47;;;;;;;;;;;10.30;65.20;;;;;;4975422;28;19922;-64
2022/01/19 14:42:13;;;;;;;;;;;10.20;66.00;;;;;;4975795;28;19910;-67
2022/01/19 14:44:43;;;;;;;;;;;10.20;66.30;;;;;;4974273;28;20318;-63
2022/01/19 14:47:27;;;;;;;;;;;10.10;66.60;;;;;;4975745;28;20009;-64
2022/01/19 14:49:53;;;;;;;;;;;10.10;66.80;;;;;;4975387;28;19914;-63
2022/01/19 14:52:18;;;;;;;;;;;10.10;67.00;;;;;;4975268;28;19960;-62
2022/01/19 14:54:44;;;;;;;;;;;9.90;67.50;;;;;;4975287;28;20246;-62
2022/01/19 14:57:10;;;;;;;;;;;9.90;67.80;;;;;;4975321;28;19923;-60
2022/01/19 14:59:36;;;;;;;;;;;9.90;68.10;;;;;;4974618;28;19952;-60
2022/01/19 15:02:03;;;;;;;;;;;9.80;68.30;;;;;;4974472;28;19914;-68
2022/01/19 15:04:28;;;;;;;;;;;9.70;68.60;;;;;;4973455;28;20223;-65
2022/01/19 15:06:58;;;;;;;;;;;9.70;68.80;;;;;;4973625;28;19918;-66
2022/01/19 15:09:24;;;;;;;;;;;9.70;68.80;;;;;;4974576;28;19914;-62
2022/01/19 15:11:50;;;;;;;;;;;9.60;69.00;;;;;;4974196;28;19918;-67
2022/01/19 15:14:16;;;;;;;;;;;9.50;69.40;;;;;;4974793;28;19914;-64
2022/01/19 15:16:42;;;;;;;;;;;9.50;69.80;;;;;;4975441;28;19910;-64
2022/01/19 15:19:07;;;;;;;;;;;9.40;69.90;;;;;;4974917;28;19929;-65
2022/01/19 15:21:33;;;;;;;;;;;9.40;69.90;;;;;;4973195;28;19910;-68
2022/01/19 15:23:59;;;;;;;;;;;9.40;70.10;;;;;;4975111;28;19934;-63
2022/01/19 15:26:26;;;;;;;;;;;9.40;70.30;;;;;;4975386;28;19910;-63
2022/01/19 15:28:52;;;;;;;;;;;9.40;70.80;;;;;;4974996;28;19917;-65
2022/01/19 15:31:18;;;;;;;;;;;9.30;70.40;;;;;;4975242;28;19910;-65
2022/01/19 15:33:44;;;;;;;;;;;9.30;70.50;;;;;;4974933;28;20231;-64
2022/01/19 15:36:10;;;;;;;;;;;9.30;70.50;;;;;;4974434;28;19917;-64
2022/01/19 15:38:36;;;;;;;;;;;9.20;70.70;;;;;;4972588;28;20286;-66
2022/01/19 15:41:04;;;;;;;;;;;9.10;71.10;;;;;;4973914;28;19911;-68
2022/01/19 15:43:29;;;;;;;;;;;9.10;71.40;;;;;;4973024;28;19922;-71
2022/01/19 15:45:58;;;;;;;;;;;9.10;71.10;;;;;;4973982;28;20001;-61
2022/01/19 15:48:24;;;;;;;;;;;9.20;70.70;;;;;;4969993;28;19910;-64
2022/01/19 15:50:51;;;;;;;;;;;9.20;70.70;;;;;;4972557;28;19981;-59
2022/01/19 15:53:17;;;;;;;;;;;9.10;70.70;;;;;;4974176;28;19910;-61
2022/01/19 15:55:43;;;;;;;;;;;9.00;70.70;;;;;;4971814;28;19910;-61
2022/01/19 15:58:08;;;;;;;;;;;8.90;71.10;;;;;;4973118;28;19976;-62
2022/01/19 16:00:35;;;;;;;;;;;8.80;71.60;;;;;;4973873;28;19925;-63
2022/01/19 16:03:04;;;;;;;;;;;8.80;72.00;;;;;;4971001;28;19918;-59
2022/01/19 16:05:30;;;;;;;;;;;8.90;71.70;;;;;;4973834;28;19926;-61
2022/01/19 16:07:56;;;;;;;;;;;8.80;71.50;;;;;;4972348;28;19911;-60
2022/01/19 16:10:21;;;;;;;;;;;8.70;71.60;;;;;;4972489;28;19932;-59